Time;durP1;ratioP1;P1;durP2;ratioP2;P2;SDS_P1;SDS_P2;PMS_P1;PMS_P2;Temp;Humidity;BMP_temperature;BMP_pressure;BME280_temperature;BME280_humidity;BME280_pressure;Samples;Min_cycle;Max_cycle;Signal;HPM_P1;HPM_P2
2022/01/20 00:01:50;;;;;;;16.42;3.38;;;;;;;1.78;100.00;101970.22;2568086;30;136742;-36
2022/01/20 00:04:34;;;;;;;16.63;3.90;;;;;;;1.75;100.00;101970.50;2566618;30;138659;-36
2022/01/20 00:23:43;;;;;;;18.15;3.97;;;;;;;1.72;100.00;101971.63;2567363;30;138286;-36
2022/01/20 00:26:16;;;;;;;22.02;3.83;;;;;;;1.72;100.00;101960.84;2568399;30;137803;-36
2022/01/20 00:28:48;;;;;;;20.88;3.58;;;;;;;1.67;100.00;101957.66;2567449;30;137660;-36
2022/01/20 00:31:40;;;;;;;18.13;3.72;;;;;;;1.59;100.00;101965.50;2566799;30;139173;-36
2022/01/20 00:39:25;;;;;;;26.60;3.90;;;;;;;1.61;100.00;101977.00;2568085;30;140081;-36
2022/01/20 00:41:55;;;;;;;16.90;3.20;;;;;;;1.56;100.00;101980.06;2566117;30;138138;-36
2022/01/20 00:44:24;;;;;;;20.65;3.10;;;;;;;1.53;100.00;101982.16;2566385;30;137956;-36
2022/01/20 00:46:52;;;;;;;18.30;2.90;;;;;;;1.54;100.00;101973.94;2568583;30;138253;-36
2022/01/20 00:49:20;;;;;;;20.80;3.55;;;;;;;1.56;100.00;101982.75;2568298;30;136903;-36
2022/01/20 00:51:48;;;;;;;16.40;3.35;;;;;;;1.63;100.00;101985.81;2568092;30;138500;-36
2022/01/20 00:54:19;;;;;;;19.70;2.80;;;;;;;1.68;100.00;101985.44;2568200;30;137387;-36
2022/01/20 00:56:48;;;;;;;22.92;3.42;;;;;;;1.71;100.00;101988.72;2565466;30;138820;-36
2022/01/20 00:59:16;;;;;;;19.02;2.75;;;;;;;1.72;100.00;101981.50;2567362;30;138214;-36
2022/01/20 01:01:45;;;;;;;23.70;3.83;;;;;;;1.80;100.00;101986.28;2571562;30;138633;-41
2022/01/20 01:04:13;;;;;;;20.48;2.83;;;;;;;1.82;100.00;101987.84;2568916;30;137158;-41
2022/01/20 01:09:24;;;;;;;26.08;3.70;;;;;;;1.74;100.00;102001.06;2567369;30;137505;-41
2022/01/20 01:11:57;;;;;;;;;;;;;;;1.67;100.00;101992.63;2566415;30;139310;-41
2022/01/20 01:14:25;;;;;;;16.92;2.45;;;;;;;1.64;100.00;101992.06;2567843;30;136910;-41
2022/01/20 01:20:08;;;;;;;17.77;2.50;;;;;;;1.61;100.00;101985.06;2567104;30;138380;-41
2022/01/20 01:22:37;;;;;;;22.95;2.85;;;;;;;1.63;100.00;101998.41;2567985;30;140555;-41
2022/01/20 01:25:05;;;;;;;15.77;3.33;;;;;;;1.66;100.00;101992.78;2566455;30;136801;-41
2022/01/20 01:27:38;;;;;;;22.50;2.97;;;;;;;1.68;100.00;101997.03;2567247;30;140018;-41
2022/01/20 01:32:55;;;;;;;15.30;2.55;;;;;;;1.68;100.00;101993.50;2567296;30;140692;-41
2022/01/20 01:35:26;;;;;;;19.70;2.45;;;;;;;1.75;100.00;101983.94;2565257;30;137943;-41
2022/01/20 01:40:26;;;;;;;14.45;2.78;;;;;;;1.80;100.00;101994.34;2568017;30;137087;-41
2022/01/20 01:42:54;;;;;;;11.38;2.25;;;;;;;1.80;100.00;102000.56;2567159;30;138274;-41
2022/01/20 01:45:27;;;;;;;18.08;2.63;;;;;;;1.84;100.00;101993.94;2567709;30;137829;-41
2022/01/20 01:47:57;;;;;;;16.63;2.72;;;;;;;1.90;100.00;101997.13;2564886;30;140411;-41
2022/01/20 01:50:27;;;;;;;15.40;2.50;;;;;;;1.92;100.00;102003.25;2564177;30;138725;-41
2022/01/20 01:52:57;;;;;;;24.83;3.28;;;;;;;1.93;100.00;102004.94;2568605;30;138653;-41
2022/01/20 01:55:25;;;;;;;21.65;2.58;;;;;;;1.98;100.00;102005.41;2567459;30;138496;-41
2022/01/20 01:57:53;;;;;;;17.38;2.60;;;;;;;1.97;100.00;102001.84;2569600;30;137308;-41
2022/01/20 02:00:22;;;;;;;16.75;2.80;;;;;;;1.98;100.00;102008.94;2568380;30;137189;-41
2022/01/20 02:02:58;;;;;;;16.67;2.40;;;;;;;1.99;100.00;102010.69;2565549;30;140930;-41
2022/01/20 02:05:48;;;;;;;21.30;3.03;;;;;;;2.02;100.00;102001.50;2566378;30;139079;-41
2022/01/20 02:08:42;;;;;;;12.38;2.22;;;;;;;2.00;100.00;102006.16;2567921;30;139920;-41
2022/01/20 02:19:34;;;;;;;13.63;2.65;;;;;;;2.00;100.00;101990.00;2566621;30;139195;-41
2022/01/20 02:22:34;;;;;;;;;;;;;;;2.03;100.00;101987.03;2565369;30;137277;-41
2022/01/20 02:25:21;;;;;;;14.77;2.17;;;;;;;1.99;100.00;101978.38;2567532;30;139369;-41
2022/01/20 02:27:50;;;;;;;8.98;2.03;;;;;;;1.92;100.00;101989.78;2567980;30;139591;-41
2022/01/20 02:30:21;;;;;;;20.90;3.03;;;;;;;1.89;100.00;101987.34;2567075;30;140546;-41
2022/01/20 02:32:56;;;;;;;14.90;2.40;;;;;;;1.80;100.00;101989.78;2567721;30;137680;-41
2022/01/20 02:35:26;;;;;;;18.30;3.15;;;;;;;1.78;100.00;101981.00;2567269;30;140933;-41
2022/01/20 02:38:05;;;;;;;13.75;2.95;;;;;;;1.70;100.00;101983.47;2566879;30;137379;-41
2022/01/20 02:45:57;;;;;;;17.53;3.67;;;;;;;1.58;100.00;101980.78;2567595;30;137143;-41
2022/01/20 02:48:25;;;;;;;13.40;1.67;;;;;;;1.60;100.00;101983.38;2567064;30;139590;-41
2022/01/20 02:50:53;;;;;;;10.45;1.70;;;;;;;1.69;100.00;101989.84;2565776;30;138991;-41
2022/01/20 02:53:21;;;;;;;14.25;2.50;;;;;;;1.64;100.00;101994.75;2568615;30;139811;-41
2022/01/20 02:55:50;;;;;;;;;;;;;;;1.68;100.00;101988.97;2567513;30;138563;-41
2022/01/20 02:58:19;;;;;;;12.52;2.08;;;;;;;1.76;100.00;101987.50;2568425;30;138537;-41
2022/01/20 03:00:48;;;;;;;15.52;2.03;;;;;;;1.75;100.00;101983.94;2566545;30;138376;-40
2022/01/20 03:03:16;;;;;;;13.13;1.80;;;;;;;1.82;100.00;101985.13;2567926;30;137070;-41
2022/01/20 03:05:44;;;;;;;12.23;1.83;;;;;;;1.86;100.00;101983.06;2567233;30;138214;-41
2022/01/20 03:08:14;;;;;;;12.65;1.98;;;;;;;1.94;100.00;101971.66;2566441;30;139049;-41
2022/01/20 03:10:42;;;;;;;10.55;2.08;;;;;;;1.92;100.00;101971.78;2566772;30;139343;-41
2022/01/20 03:13:11;;;;;;;8.57;1.58;;;;;;;1.90;100.00;101983.69;2567851;30;139522;-41
2022/01/20 03:15:39;;;;;;;8.35;1.63;;;;;;;1.91;100.00;101986.22;2565576;30;140002;-40
2022/01/20 03:18:07;;;;;;;13.50;1.80;;;;;;;1.95;100.00;101994.91;2565615;30;137325;-41
2022/01/20 03:20:36;;;;;;;10.25;1.88;;;;;;;1.89;100.00;101990.03;2566281;30;140508;-41
2022/01/20 03:23:04;;;;;;;13.63;2.00;;;;;;;1.77;100.00;101981.13;2565476;30;138051;-41
2022/01/20 03:25:33;;;;;;;11.27;1.20;;;;;;;1.79;100.00;101980.00;2566686;30;137307;-41
2022/01/20 03:28:02;;;;;;;8.50;1.75;;;;;;;1.78;100.00;101981.00;2566520;30;138353;-41
2022/01/20 03:30:30;;;;;;;8.98;1.50;;;;;;;1.79;100.00;101976.47;2566968;30;138176;-41
2022/01/20 03:32:58;;;;;;;;;;;;;;;1.79;100.00;101985.41;2566149;30;139606;-41
2022/01/20 03:35:26;;;;;;;14.27;1.85;;;;;;;1.81;100.00;101991.50;2568196;30;138858;-41
2022/01/20 03:38:23;;;;;;;13.05;1.73;;;;;;;1.79;100.00;101980.00;2568126;30;136872;-41
2022/01/20 03:40:54;;;;;;;17.08;1.92;;;;;;;1.83;100.00;101976.09;2565726;30;139194;-41
2022/01/20 03:43:22;;;;;;;11.98;1.80;;;;;;;1.84;100.00;101979.66;2566485;30;138822;-41
2022/01/20 03:45:55;;;;;;;;;;;;;;;1.90;100.00;101984.50;2567963;30;139631;-41
2022/01/20 03:48:26;;;;;;;8.30;1.83;;;;;;;1.91;100.00;101971.94;2567176;30;139281;-41
2022/01/20 03:51:02;;;;;;;14.32;2.25;;;;;;;2.04;100.00;101966.38;2567335;30;139270;-41
2022/01/20 03:53:38;;;;;;;13.13;1.77;;;;;;;2.07;100.00;101958.88;2567425;30;138601;-41
2022/01/20 03:56:12;;;;;;;11.50;1.50;;;;;;;2.10;100.00;101963.16;2564741;30;140564;-41
2022/01/20 03:58:53;;;;;;;11.27;2.05;;;;;;;2.13;100.00;101961.09;2567163;30;139521;-41
2022/01/20 04:01:22;;;;;;;12.57;2.60;;;;;;;2.14;100.00;101959.22;2567008;30;138192;-41
2022/01/20 04:04:06;;;;;;;12.07;1.88;;;;;;;2.21;100.00;101964.97;2567899;30;138449;-41
2022/01/20 04:06:51;;;;;;;11.07;1.73;;;;;;;2.23;100.00;101971.91;2567012;30;139315;-40
2022/01/20 04:09:19;;;;;;;12.52;1.83;;;;;;;2.28;100.00;101969.69;2568691;30;137603;-40
2022/01/20 04:11:49;;;;;;;;;;;;;;;2.29;100.00;101966.03;2568781;30;137056;-41
2022/01/20 04:14:19;;;;;;;8.13;1.30;;;;;;;2.27;100.00;101970.69;2566475;30;138151;-41
2022/01/20 04:19:27;;;;;;;11.20;1.85;;;;;;;2.07;100.00;101980.41;2566522;30;137328;-41
2022/01/20 04:21:57;;;;;;;11.43;2.35;;;;;;;2.02;100.00;101977.25;2567378;30;140521;-41
2022/01/20 04:24:26;;;;;;;11.55;1.58;;;;;;;2.01;100.00;101965.66;2566192;30;137342;-41
2022/01/20 04:26:54;;;;;;;11.60;2.25;;;;;;;2.06;100.00;101967.09;2568381;30;141043;-41
2022/01/20 04:29:22;;;;;;;7.65;1.52;;;;;;;2.04;100.00;101959.13;2568818;30;137625;-41
2022/01/20 04:31:50;;;;;;;9.40;2.10;;;;;;;1.98;100.00;101960.50;2568455;30;138574;-41
2022/01/20 04:34:19;;;;;;;14.07;1.92;;;;;;;1.99;100.00;101964.06;2568432;30;138768;-41
2022/01/20 04:36:50;;;;;;;7.75;1.45;;;;;;;1.95;100.00;101950.00;2568822;30;138087;-41
2022/01/20 04:39:22;;;;;;;11.65;1.70;;;;;;;1.93;100.00;101951.13;2567708;30;139068;-41
2022/01/20 04:41:51;;;;;;;13.10;1.80;;;;;;;1.96;100.00;101950.84;2567174;30;139410;-41
2022/01/20 04:44:41;;;;;;;13.90;2.05;;;;;;;1.95;100.00;101957.22;2567580;30;137444;-41
2022/01/20 04:47:22;;;;;;;17.48;1.80;;;;;;;1.98;100.00;101959.66;2567599;30;140013;-41
2022/01/20 04:58:12;;;;;;;13.75;1.90;;;;;;;2.06;100.00;101978.72;2567633;30;137317;-41
2022/01/20 05:00:39;;;;;;;15.65;1.92;;;;;;;2.11;100.00;101971.09;2566163;30;138956;-41
2022/01/20 05:03:26;;;;;;;9.05;1.80;;;;;;;2.10;100.00;101979.31;2569575;30;136866;-41
2022/01/20 05:05:59;;;;;;;8.35;1.55;;;;;;;2.08;100.00;101989.38;2566500;30;138451;-41
2022/01/20 05:08:29;;;;;;;11.68;1.70;;;;;;;2.10;100.00;101977.47;2567741;30;140389;-40
2022/01/20 05:11:02;;;;;;;14.82;2.20;;;;;;;2.10;100.00;101974.78;2565381;30;139575;-41
2022/01/20 05:13:36;;;;;;;12.90;2.10;;;;;;;2.04;100.00;101982.53;2568027;30;139346;-40
2022/01/20 05:16:05;;;;;;;7.10;1.73;;;;;;;2.05;100.00;101989.63;2568986;30;139169;-41
2022/01/20 05:18:33;;;;;;;12.90;2.10;;;;;;;2.08;100.00;101987.50;2569081;30;137972;-41
2022/01/20 05:21:01;;;;;;;16.65;2.05;;;;;;;2.09;100.00;101996.47;2568425;30;138896;-40
2022/01/20 05:23:30;;;;;;;14.98;2.15;;;;;;;2.08;100.00;101998.28;2567974;30;138615;-41
2022/01/20 05:26:00;;;;;;;14.48;1.88;;;;;;;2.05;100.00;101998.53;2567735;30;139419;-41
2022/01/20 05:28:28;;;;;;;;;;;;;;;2.05;100.00;102009.31;2568980;30;139650;-41
2022/01/20 05:30:56;;;;;;;5.28;1.25;;;;;;;2.08;100.00;102010.91;2566901;30;139192;-41
2022/01/20 05:33:33;;;;;;;11.38;1.60;;;;;;;2.07;100.00;101999.25;2567273;30;137783;-41
2022/01/20 05:36:02;;;;;;;9.15;1.67;;;;;;;2.10;100.00;102007.09;2567308;30;137576;-41
2022/01/20 05:38:30;;;;;;;8.27;2.67;;;;;;;2.09;100.00;102015.31;2567686;30;140486;-40
2022/01/20 05:40:58;;;;;;;9.38;1.55;;;;;;;2.08;100.00;102025.22;2568238;30;138463;-40
2022/01/20 05:43:25;;;;;;;;;;;;;;;2.12;100.00;102021.31;2565533;30;138508;-40
2022/01/20 05:45:53;;;;;;;7.55;1.30;;;;;;;2.20;100.00;102035.97;2568634;30;138758;-40
2022/01/20 05:48:32;;;;;;;10.82;1.70;;;;;;;2.22;100.00;102039.38;2567519;30;138579;-41
2022/01/20 05:51:25;;;;;;;9.27;1.60;;;;;;;2.20;100.00;102044.03;2566700;30;137545;-41
2022/01/20 05:53:53;;;;;;;11.85;1.55;;;;;;;2.15;100.00;102056.06;2566387;30;138352;-40
2022/01/20 05:56:21;;;;;;;7.97;1.98;;;;;;;2.12;100.00;102053.63;2568302;30;138657;-41
2022/01/20 05:58:49;;;;;;;;;;;;;;;2.07;100.00;102047.72;2568662;30;139937;-41
2022/01/20 06:01:18;;;;;;;11.00;1.90;;;;;;;2.01;100.00;102062.56;2565201;30;139856;-41
2022/01/20 06:03:46;;;;;;;12.02;1.50;;;;;;;1.99;100.00;102069.91;2567997;30;138334;-41
2022/01/20 06:06:23;;;;;;;10.25;2.10;;;;;;;1.97;100.00;102065.63;2565319;30;138834;-41
2022/01/20 06:08:51;;;;;;;10.65;1.88;;;;;;;1.93;100.00;102059.63;2566398;30;139737;-40
2022/01/20 06:11:19;;;;;;;11.18;2.10;;;;;;;1.91;100.00;102060.75;2567982;30;138798;-40
2022/01/20 06:13:49;;;;;;;9.63;1.42;;;;;;;1.88;100.00;102059.16;2565186;30;140586;-41
2022/01/20 06:16:17;;;;;;;6.90;1.70;;;;;;;1.84;100.00;102055.00;2566342;30;139752;-41
2022/01/20 06:18:45;;;;;;;;;;;;;;;1.81;100.00;102061.47;2567339;30;138287;-41
2022/01/20 06:21:15;;;;;;;9.20;1.73;;;;;;;1.73;100.00;102058.56;2564578;30;139560;-40
2022/01/20 06:23:43;;;;;;;7.03;1.30;;;;;;;1.73;100.00;102055.88;2568295;30;139616;-41
2022/01/20 06:26:12;;;;;;;12.07;1.45;;;;;;;1.75;100.00;102069.22;2567670;30;137820;-41
2022/01/20 06:28:40;;;;;;;9.77;1.52;;;;;;;1.78;100.00;102075.19;2567385;30;139247;-41
2022/01/20 06:31:10;;;;;;;9.93;1.40;;;;;;;1.72;100.00;102083.75;2568113;30;137024;-41
2022/01/20 06:33:39;;;;;;;12.05;1.50;;;;;;;1.72;100.00;102084.63;2568130;30;139198;-41
2022/01/20 06:36:09;;;;;;;11.18;1.40;;;;;;;1.68;100.00;102098.44;2567482;30;140537;-41
2022/01/20 06:38:37;;;;;;;;;;;;;;;1.71;100.00;102100.88;2566474;30;138622;-41
2022/01/20 06:41:05;;;;;;;11.43;1.67;;;;;;;1.72;100.00;102102.59;2567576;30;139357;-41
2022/01/20 06:43:35;;;;;;;6.95;1.27;;;;;;;1.69;100.00;102105.53;2567603;30;139087;-41
2022/01/20 06:46:04;;;;;;;4.95;1.17;;;;;;;1.67;100.00;102115.56;2567437;30;138695;-41
2022/01/20 06:48:51;;;;;;;8.65;1.73;;;;;;;1.67;100.00;102118.25;2567167;30;136794;-41
2022/01/20 06:51:46;;;;;;;11.48;2.13;;;;;;;1.69;100.00;102129.75;2566627;30;137243;-41
2022/01/20 06:54:16;;;;;;;11.27;1.70;;;;;;;1.70;100.00;102129.63;2568916;30;138337;-41
2022/01/20 06:56:44;;;;;;;9.05;2.05;;;;;;;1.74;100.00;102132.09;2568132;30;137386;-41
2022/01/20 06:59:17;;;;;;;8.82;1.40;;;;;;;1.77;100.00;102137.22;2568009;30;139395;-41
2022/01/20 07:01:46;;;;;;;8.85;1.60;;;;;;;1.75;100.00;102142.72;2570416;30;139651;-36
2022/01/20 07:04:27;;;;;;;17.50;1.65;;;;;;;1.74;100.00;102156.31;2565879;30;139633;-36
2022/01/20 07:06:55;;;;;;;13.13;1.77;;;;;;;1.72;100.00;102159.97;2567644;30;138849;-36
2022/01/20 07:09:43;;;;;;;10.85;1.80;;;;;;;1.71;100.00;102154.72;2568287;30;136941;-36
2022/01/20 07:12:18;;;;;;;12.65;1.92;;;;;;;1.75;100.00;102158.88;2567146;30;138157;-36
2022/01/20 07:14:46;;;;;;;;;;;;;;;1.82;100.00;102162.78;2566889;30;139697;-36
2022/01/20 07:17:14;;;;;;;8.52;1.20;;;;;;;1.79;100.00;102175.63;2565024;30;138433;-36
2022/01/20 07:19:47;;;;;;;12.55;1.83;;;;;;;1.76;100.00;102182.09;2565865;30;138783;-36
2022/01/20 07:22:16;;;;;;;12.50;2.45;;;;;;;1.76;100.00;102187.47;2567435;30;138925;-36
2022/01/20 07:24:47;;;;;;;14.05;1.67;;;;;;;1.76;100.00;102203.63;2564980;30;138658;-36
2022/01/20 07:27:27;;;;;;;6.97;1.27;;;;;;;1.73;100.00;102211.94;2567035;30;136831;-36
2022/01/20 07:29:55;;;;;;;7.78;1.58;;;;;;;1.75;100.00;102207.31;2565837;30;139357;-36
2022/01/20 07:32:24;;;;;;;13.73;1.90;;;;;;;1.82;100.00;102216.59;2568349;30;139222;-36
2022/01/20 07:34:52;;;;;;;12.30;2.67;;;;;;;1.78;100.00;102216.97;2566711;30;139571;-36
2022/01/20 07:37:20;;;;;;;;;;;;;;;1.80;100.00;102215.88;2566691;30;138546;-36
2022/01/20 07:39:48;;;;;;;8.43;2.03;;;;;;;1.82;100.00;102224.66;2568439;30;140336;-36
2022/01/20 07:42:16;;;;;;;;;;;;;;;1.79;100.00;102224.91;2567156;30;139394;-36
2022/01/20 07:45:05;;;;;;;7.28;1.50;;;;;;;1.83;100.00;102233.63;2568481;30;138319;-36
2022/01/20 07:47:47;;;;;;;11.02;2.50;;;;;;;1.75;99.54;102228.00;2566086;30;137425;-36
2022/01/20 07:50:16;;;;;;;19.73;2.78;;;;;;;1.71;100.00;102227.34;2567833;30;138062;-36
2022/01/20 07:52:44;;;;;;;11.63;1.70;;;;;;;1.68;99.89;102236.50;2568423;30;138178;-36
2022/01/20 07:55:13;;;;;;;9.07;2.10;;;;;;;1.62;99.71;102246.91;2567179;30;139735;-36
2022/01/20 07:57:41;;;;;;;11.32;1.95;;;;;;;1.62;99.65;102249.59;2565960;30;137762;-36
2022/01/20 08:00:10;;;;;;;11.32;1.98;;;;;;;1.57;100.00;102258.03;2567638;30;140105;-36
2022/01/20 08:02:45;;;;;;;12.98;2.40;;;;;;;1.50;100.00;102257.63;2568352;30;136723;-36
2022/01/20 08:05:25;;;;;;;9.55;2.53;;;;;;;1.49;100.00;102255.91;2568006;30;139617;-36
2022/01/20 08:07:55;;;;;;;15.13;2.47;;;;;;;1.64;100.00;102253.03;2568106;30;138733;-36
2022/01/20 08:10:24;;;;;;;12.57;2.60;;;;;;;1.66;100.00;102254.63;2567204;30;139268;-34
2022/01/20 08:12:52;;;;;;;10.85;2.05;;;;;;;1.69;100.00;102257.06;2567917;30;139442;-36
2022/01/20 08:15:24;;;;;;;12.60;2.17;;;;;;;1.74;100.00;102266.66;2567502;30;138243;-36
2022/01/20 08:18:07;;;;;;;10.80;1.90;;;;;;;1.84;100.00;102267.63;2568596;30;138259;-36
2022/01/20 08:20:37;;;;;;;12.77;2.10;;;;;;;1.93;100.00;102263.38;2568079;30;139215;-36
2022/01/20 08:23:07;;;;;;;12.70;1.90;;;;;;;1.88;100.00;102262.88;2568722;30;137904;-36
2022/01/20 08:25:35;;;;;;;;;;;;;;;1.90;100.00;102274.38;2567922;30;140073;-36
2022/01/20 08:28:03;;;;;;;9.20;1.30;;;;;;;1.85;100.00;102270.19;2568394;30;136577;-36
2022/01/20 08:30:36;;;;;;;18.40;2.10;;;;;;;1.83;100.00;102274.84;2566616;30;139065;-36
2022/01/20 08:33:04;;;;;;;13.15;2.30;;;;;;;1.84;99.25;102281.94;2566885;30;138169;-36
2022/01/20 08:35:47;;;;;;;11.82;1.60;;;;;;;1.91;100.00;102285.00;2567872;30;139376;-36
2022/01/20 08:38:33;;;;;;;9.57;2.15;;;;;;;1.87;97.81;102291.63;2569609;30;136817;-36
2022/01/20 08:41:01;;;;;;;12.45;1.98;;;;;;;1.90;98.84;102280.59;2567594;30;138366;-36
2022/01/20 08:43:37;;;;;;;7.93;1.60;;;;;;;1.98;97.19;102288.94;2569475;30;137344;-36
2022/01/20 08:46:08;;;;;;;13.32;1.40;;;;;;;2.06;98.93;102284.81;2568011;30;141058;-36
2022/01/20 08:48:38;;;;;;;13.07;1.67;;;;;;;2.14;96.92;102291.31;2567727;30;137550;-36
2022/01/20 08:51:33;;;;;;;8.63;1.75;;;;;;;2.28;92.65;102284.81;2568193;30;136740;-36
2022/01/20 08:54:11;;;;;;;8.80;1.23;;;;;;;2.38;92.21;102289.47;2567618;30;139904;-36
2022/01/20 08:56:40;;;;;;;5.22;1.10;;;;;;;2.43;91.30;102282.75;2567309;30;140559;-36
2022/01/20 08:59:10;;;;;;;11.05;1.25;;;;;;;2.49;89.29;102286.75;2568799;30;139517;-36
2022/01/20 09:01:41;;;;;;;9.32;1.20;;;;;;;2.53;88.45;102290.06;2569150;30;140471;-36
2022/01/20 09:04:10;;;;;;;7.65;1.02;;;;;;;2.54;89.06;102294.47;2567188;30;137497;-35
2022/01/20 09:06:56;;;;;;;9.13;0.95;;;;;;;2.56;90.00;102298.78;2568444;30;136847;-36
2022/01/20 09:09:39;;;;;;;6.35;1.17;;;;;;;2.58;88.90;102306.72;2567887;30;139358;-36
2022/01/20 09:17:32;;;;;;;7.60;1.02;;;;;;;2.65;86.63;102332.22;2568956;30;139421;-36
2022/01/20 09:20:00;;;;;;;;;;;;;;;2.71;87.25;102329.03;2569726;30;137013;-36
2022/01/20 09:22:31;;;;;;;9.52;1.30;;;;;;;2.74;88.18;102325.22;2567068;30;138942;-36
2022/01/20 09:24:59;;;;;;;6.40;1.35;;;;;;;2.78;88.66;102332.06;2568538;30;137682;-36
2022/01/20 09:27:27;;;;;;;;;;;;;;;2.77;87.12;102324.97;2568361;30;139806;-36
2022/01/20 09:29:54;;;;;;;10.70;1.27;;;;;;;2.80;89.26;102319.34;2568786;30;138981;-36
2022/01/20 09:32:26;;;;;;;11.60;1.65;;;;;;;2.82;89.44;102322.78;2568504;30;139715;-36
2022/01/20 09:34:56;;;;;;;8.88;1.60;;;;;;;2.79;89.40;102330.25;2567464;30;138342;-36
2022/01/20 09:37:25;;;;;;;6.40;1.92;;;;;;;2.76;88.38;102320.53;2567952;30;139662;-36
2022/01/20 09:39:53;;;;;;;6.43;1.40;;;;;;;2.69;86.52;102328.28;2567275;30;137584;-36
2022/01/20 09:42:42;;;;;;;9.80;1.25;;;;;;;2.66;85.88;102336.63;2567675;30;140648;-36
2022/01/20 09:45:09;;;;;;;6.55;1.40;;;;;;;2.60;86.31;102342.50;2569458;30;138664;-36
2022/01/20 09:47:37;;;;;;;;;;;;;;;2.57;87.78;102351.69;2567865;30;140877;-36
2022/01/20 09:50:25;;;;;;;6.18;1.30;;;;;;;2.70;88.68;102361.47;2568003;30;136911;-35
2022/01/20 09:53:23;;;;;;;8.75;1.20;;;;;;;2.94;86.54;102358.66;2565761;30;137402;-36
2022/01/20 09:56:06;;;;;;;9.85;1.48;;;;;;;3.07;86.71;102372.00;2567637;30;139720;-36
2022/01/20 09:58:37;;;;;;;7.70;1.65;;;;;;;3.07;84.85;102366.63;2567824;30;137269;-36
2022/01/20 10:01:05;;;;;;;9.07;1.30;;;;;;;3.08;86.76;102365.63;2567049;30;139727;-36
2022/01/20 10:03:36;;;;;;;11.60;1.40;;;;;;;3.12;85.28;102374.31;2567500;30;140487;-36
2022/01/20 10:06:06;;;;;;;9.52;1.30;;;;;;;3.13;85.67;102370.63;2565516;30;139719;-36
2022/01/20 10:08:40;;;;;;;8.95;1.30;;;;;;;3.18;87.55;102384.59;2567420;30;140218;-36
2022/01/20 10:11:22;;;;;;;8.75;1.52;;;;;;;3.09;86.07;102375.44;2568859;30;139268;-36
2022/01/20 10:14:15;;;;;;;5.78;1.45;;;;;;;3.07;87.75;102369.31;2568780;30;140765;-36
2022/01/20 10:16:57;;;;;;;12.32;1.50;;;;;;;2.94;88.48;102380.22;2567966;30;138410;-36
2022/01/20 10:19:30;;;;;;;11.52;1.65;;;;;;;2.80;87.84;102386.75;2567402;30;140495;-36
2022/01/20 10:22:17;;;;;;;9.70;1.20;;;;;;;2.75;88.37;102396.16;2567761;30;139117;-36
2022/01/20 10:25:14;;;;;;;8.18;1.35;;;;;;;2.83;89.18;102391.00;2567221;30;136992;-36
2022/01/20 10:28:03;;;;;;;8.55;1.25;;;;;;;3.08;89.50;102386.34;2567747;30;139385;-36
2022/01/20 10:30:33;;;;;;;9.73;1.55;;;;;;;3.13;85.37;102392.22;2567792;30;137441;-36
2022/01/20 10:33:02;;;;;;;9.50;1.27;;;;;;;3.12;83.87;102390.50;2568036;30;138755;-36
2022/01/20 10:35:36;;;;;;;4.15;0.80;;;;;;;3.13;85.71;102397.59;2567345;30;140498;-36
2022/01/20 10:38:13;;;;;;;10.52;1.30;;;;;;;3.07;84.31;102416.97;2568219;30;139566;-36
2022/01/20 10:40:58;;;;;;;8.23;1.50;;;;;;;3.09;84.94;102421.28;2567720;30;138270;-36
2022/01/20 10:43:33;;;;;;;9.02;1.83;;;;;;;3.08;84.61;102419.56;2565450;30;138940;-36
2022/01/20 10:46:24;;;;;;;8.90;1.70;;;;;;;3.09;84.88;102418.59;2567939;30;137954;-36
2022/01/20 10:49:00;;;;;;;11.63;1.15;;;;;;;3.14;84.75;102418.19;2566230;30;138555;-36
2022/01/20 10:51:53;;;;;;;8.10;1.23;;;;;;;3.20;84.12;102423.13;2567750;30;139481;-36
2022/01/20 10:54:21;;;;;;;9.60;1.10;;;;;;;3.15;83.89;102434.28;2568228;30;138930;-36
2022/01/20 10:56:54;;;;;;;6.90;2.00;;;;;;;3.21;85.17;102429.34;2568128;30;139339;-36
2022/01/20 10:59:24;;;;;;;5.68;1.33;;;;;;;3.19;83.68;102434.03;2568146;30;138799;-36
2022/01/20 11:02:04;;;;;;;6.70;1.00;;;;;;;3.17;82.07;102423.34;2568706;30;139804;-36
2022/01/20 11:04:33;;;;;;;5.57;1.10;;;;;;;3.15;83.58;102436.09;2567521;30;138947;-36
2022/01/20 11:07:07;;;;;;;7.03;1.63;;;;;;;3.12;81.51;102423.72;2567655;30;139318;-36
2022/01/20 11:09:45;;;;;;;8.43;1.25;;;;;;;3.12;82.63;102429.13;2567687;30;137472;-36
2022/01/20 11:12:34;;;;;;;10.32;1.70;;;;;;;3.18;82.40;102416.97;2567204;30;136864;-36
2022/01/20 11:15:17;;;;;;;8.60;1.33;;;;;;;3.27;83.23;102405.44;2567645;30;137664;-36
2022/01/20 11:17:51;;;;;;;5.88;1.27;;;;;;;3.23;81.56;102403.97;2568353;30;139474;-36
2022/01/20 11:20:23;;;;;;;11.35;1.10;;;;;;;3.15;81.37;102395.63;2564933;30;137286;-36
2022/01/20 11:23:04;;;;;;;7.93;1.33;;;;;;;3.14;82.25;102405.59;2563659;30;140675;-36
2022/01/20 11:25:39;;;;;;;7.65;1.40;;;;;;;3.13;81.00;102405.69;2567305;30;137557;-36
2022/01/20 11:28:30;;;;;;;6.10;1.70;;;;;;;3.25;80.46;102406.53;2567556;30;137849;-36
2022/01/20 11:31:07;;;;;;;5.22;1.05;;;;;;;3.23;80.13;102403.97;2567496;30;136798;-36
2022/01/20 11:33:47;;;;;;;8.82;1.50;;;;;;;3.35;80.81;102398.56;2567759;30;138374;-36
2022/01/20 11:36:29;;;;;;;9.15;1.80;;;;;;;3.61;81.44;102393.72;2566582;30;137721;-36
2022/01/20 11:39:23;;;;;;;7.30;1.17;;;;;;;3.75;80.49;102387.16;2565493;30;137394;-36
2022/01/20 11:41:52;;;;;;;10.93;1.52;;;;;;;3.69;80.48;102393.03;2565666;30;137136;-36
2022/01/20 11:44:26;;;;;;;6.57;1.33;;;;;;;3.58;78.40;102391.22;2567084;30;138237;-36
2022/01/20 11:47:05;;;;;;;7.68;1.30;;;;;;;3.45;81.52;102391.44;2568249;30;138500;-36
2022/01/20 11:49:39;;;;;;;8.30;1.35;;;;;;;3.42;81.80;102391.66;2568310;30;139142;-36
2022/01/20 11:52:09;;;;;;;7.90;1.33;;;;;;;3.44;82.11;102395.09;2566962;30;137265;-36
2022/01/20 11:54:40;;;;;;;9.63;1.70;;;;;;;3.51;82.97;102395.44;2568080;30;138602;-36
2022/01/20 11:57:14;;;;;;;5.97;1.40;;;;;;;3.63;83.81;102390.88;2567853;30;137695;-36
2022/01/20 11:59:44;;;;;;;7.30;1.67;;;;;;;3.89;85.23;102400.34;2564681;30;138441;-36
2022/01/20 12:02:32;;;;;;;10.20;1.55;;;;;;;4.00;81.85;102396.72;2568550;30;136853;-36
2022/01/20 12:05:18;;;;;;;8.82;1.67;;;;;;;3.97;82.80;102388.00;2568009;30;139129;-36
2022/01/20 12:08:18;;;;;;;9.05;1.30;;;;;;;3.86;81.39;102387.09;2566152;30;137437;-34
2022/01/20 12:10:58;;;;;;;10.93;1.80;;;;;;;3.64;80.56;102371.84;2566572;30;137404;-36
2022/01/20 12:13:27;;;;;;;8.07;1.48;;;;;;;3.52;82.04;102384.53;2566147;30;137197;-36
2022/01/20 12:15:58;;;;;;;8.55;1.35;;;;;;;3.51;83.80;102369.31;2567290;30;137484;-36
2022/01/20 12:18:30;;;;;;;13.10;2.10;;;;;;;3.44;80.79;102362.69;2567477;30;139094;-36
2022/01/20 12:21:04;;;;;;;11.95;1.55;;;;;;;3.54;83.81;102360.97;2569865;30;138530;-36
2022/01/20 12:23:41;;;;;;;6.50;1.63;;;;;;;3.62;83.13;102364.84;2567211;30;137102;-36
2022/01/20 12:26:09;;;;;;;7.15;1.67;;;;;;;3.74;83.04;102356.59;2567596;30;137365;-36
2022/01/20 12:28:37;;;;;;;;;;;;;;;3.85;81.50;102366.47;2569563;30;137632;-36
2022/01/20 12:31:08;;;;;;;10.05;1.10;;;;;;;3.94;80.74;102366.66;2569507;30;136878;-36
2022/01/20 12:33:45;;;;;;;10.88;1.70;;;;;;;4.07;80.07;102371.88;2569514;30;137422;-35
2022/01/20 12:36:16;;;;;;;8.65;1.65;;;;;;;4.16;80.23;102365.72;2567986;30;137971;-36
2022/01/20 12:38:47;;;;;;;7.03;1.40;;;;;;;4.21;80.05;102370.69;2568318;30;137258;-36
2022/01/20 12:41:24;;;;;;;7.72;1.63;;;;;;;4.17;79.65;102364.72;2567887;30;139261;-36
2022/01/20 12:44:08;;;;;;;5.07;1.30;;;;;;;4.08;77.87;102369.06;2568877;30;137482;-36
2022/01/20 12:46:39;;;;;;;6.43;1.27;;;;;;;3.91;78.67;102366.94;2568313;30;139171;-36
2022/01/20 12:49:13;;;;;;;8.77;1.35;;;;;;;3.82;77.19;102368.56;2569202;30;136781;-36
2022/01/20 12:51:51;;;;;;;5.85;2.08;;;;;;;3.81;78.80;102353.34;2568444;30;139041;-36